sensor_id;sensor_type;location;lat;lon;timestamp;P1;durP1;ratioP1;P2;durP2;ratioP2
21589;SDS011;10957;50.968;6.828;2023-05-07T00:03:27;5.82;;;5.53;;
21589;SDS011;10957;50.968;6.828;2023-05-07T00:08:28;5.15;;;4.95;;
21589;SDS011;10957;50.968;6.828;2023-05-07T00:13:30;6.35;;;5.95;;
21589;SDS011;10957;50.968;6.828;2023-05-07T00:18:35;5.60;;;5.30;;
21589;SDS011;10957;50.968;6.828;2023-05-07T00:23:37;5.85;;;5.55;;
21589;SDS011;10957;50.968;6.828;2023-05-07T00:28:38;5.32;;;5.13;;
21589;SDS011;10957;50.968;6.828;2023-05-07T00:33:40;4.97;;;4.78;;
21589;SDS011;10957;50.968;6.828;2023-05-07T00:38:41;5.28;;;5.07;;
21589;SDS011;10957;50.968;6.828;2023-05-07T00:43:42;5.63;;;5.32;;
21589;SDS011;10957;50.968;6.828;2023-05-07T00:48:44;5.03;;;4.82;;
21589;SDS011;10957;50.968;6.828;2023-05-07T00:53:45;5.43;;;5.20;;
21589;SDS011;10957;50.968;6.828;2023-05-07T00:58:47;5.07;;;4.88;;
21589;SDS011;10957;50.968;6.828;2023-05-07T01:03:49;5.30;;;5.10;;
21589;SDS011;10957;50.968;6.828;2023-05-07T01:08:50;5.63;;;5.38;;
21589;SDS011;10957;50.968;6.828;2023-05-07T01:13:55;5.40;;;5.20;;
21589;SDS011;10957;50.968;6.828;2023-05-07T01:18:57;5.35;;;5.15;;
21589;SDS011;10957;50.968;6.828;2023-05-07T01:23:59;5.50;;;5.30;;
21589;SDS011;10957;50.968;6.828;2023-05-07T01:29:01;5.45;;;5.18;;
21589;SDS011;10957;50.968;6.828;2023-05-07T01:34:03;5.65;;;5.35;;
21589;SDS011;10957;50.968;6.828;2023-05-07T01:39:07;5.43;;;5.22;;
21589;SDS011;10957;50.968;6.828;2023-05-07T01:44:13;5.95;;;5.65;;
21589;SDS011;10957;50.968;6.828;2023-05-07T01:49:16;5.50;;;5.20;;
21589;SDS011;10957;50.968;6.828;2023-05-07T01:54:18;5.70;;;5.40;;
21589;SDS011;10957;50.968;6.828;2023-05-07T01:59:20;5.40;;;5.20;;
21589;SDS011;10957;50.968;6.828;2023-05-07T02:04:21;5.72;;;5.45;;
21589;SDS011;10957;50.968;6.828;2023-05-07T02:09:23;5.75;;;5.50;;
21589;SDS011;10957;50.968;6.828;2023-05-07T02:14:25;5.63;;;5.35;;
21589;SDS011;10957;50.968;6.828;2023-05-07T02:19:26;5.40;;;5.20;;
21589;SDS011;10957;50.968;6.828;2023-05-07T02:24:28;5.32;;;5.13;;
21589;SDS011;10957;50.968;6.828;2023-05-07T02:29:29;5.07;;;4.88;;
21589;SDS011;10957;50.968;6.828;2023-05-07T02:34:31;5.22;;;5.03;;
21589;SDS011;10957;50.968;6.828;2023-05-07T02:39:32;5.45;;;5.25;;
21589;SDS011;10957;50.968;6.828;2023-05-07T02:44:33;6.25;;;5.90;;
21589;SDS011;10957;50.968;6.828;2023-05-07T02:49:36;5.30;;;5.10;;
21589;SDS011;10957;50.968;6.828;2023-05-07T02:54:38;5.10;;;4.90;;
21589;SDS011;10957;50.968;6.828;2023-05-07T02:59:39;5.40;;;5.20;;
21589;SDS011;10957;50.968;6.828;2023-05-07T03:04:41;5.38;;;5.18;;
21589;SDS011;10957;50.968;6.828;2023-05-07T03:09:42;5.22;;;5.03;;
21589;SDS011;10957;50.968;6.828;2023-05-07T03:14:44;6.00;;;5.70;;
21589;SDS011;10957;50.968;6.828;2023-05-07T03:19:45;5.13;;;4.93;;
21589;SDS011;10957;50.968;6.828;2023-05-07T03:24:47;5.40;;;5.20;;
21589;SDS011;10957;50.968;6.828;2023-05-07T03:29:48;5.18;;;4.97;;
21589;SDS011;10957;50.968;6.828;2023-05-07T03:34:50;5.13;;;4.93;;
21589;SDS011;10957;50.968;6.828;2023-05-07T03:39:52;5.60;;;5.30;;
21589;SDS011;10957;50.968;6.828;2023-05-07T03:44:53;6.35;;;6.05;;
21589;SDS011;10957;50.968;6.828;2023-05-07T03:49:56;5.57;;;5.38;;
21589;SDS011;10957;50.968;6.828;2023-05-07T03:54:59;5.55;;;5.32;;
21589;SDS011;10957;50.968;6.828;2023-05-07T04:00:01;5.72;;;5.47;;
21589;SDS011;10957;50.968;6.828;2023-05-07T04:05:08;5.93;;;5.63;;
21589;SDS011;10957;50.968;6.828;2023-05-07T04:10:09;5.68;;;5.45;;
21589;SDS011;10957;50.968;6.828;2023-05-07T04:15:14;6.13;;;5.82;;
21589;SDS011;10957;50.968;6.828;2023-05-07T04:20:16;5.25;;;5.05;;
21589;SDS011;10957;50.968;6.828;2023-05-07T04:25:20;5.43;;;5.22;;
21589;SDS011;10957;50.968;6.828;2023-05-07T04:30:22;5.20;;;5.00;;
21589;SDS011;10957;50.968;6.828;2023-05-07T04:35:24;6.28;;;5.82;;
21589;SDS011;10957;50.968;6.828;2023-05-07T04:40:26;5.10;;;4.90;;
21589;SDS011;10957;50.968;6.828;2023-05-07T04:45:28;4.90;;;4.70;;
21589;SDS011;10957;50.968;6.828;2023-05-07T04:50:30;5.10;;;4.90;;
21589;SDS011;10957;50.968;6.828;2023-05-07T04:55:35;5.40;;;5.10;;
21589;SDS011;10957;50.968;6.828;2023-05-07T05:00:38;5.93;;;5.63;;
21589;SDS011;10957;50.968;6.828;2023-05-07T05:05:41;6.95;;;6.45;;
21589;SDS011;10957;50.968;6.828;2023-05-07T05:10:43;5.32;;;5.13;;
21589;SDS011;10957;50.968;6.828;2023-05-07T05:15:45;4.93;;;4.72;;
21589;SDS011;10957;50.968;6.828;2023-05-07T05:20:46;5.15;;;4.95;;
21589;SDS011;10957;50.968;6.828;2023-05-07T05:25:48;4.80;;;4.60;;
21589;SDS011;10957;50.968;6.828;2023-05-07T05:30:50;4.85;;;4.65;;
21589;SDS011;10957;50.968;6.828;2023-05-07T05:35:53;6.07;;;5.60;;
21589;SDS011;10957;50.968;6.828;2023-05-07T05:40:55;4.90;;;4.70;;
21589;SDS011;10957;50.968;6.828;2023-05-07T05:45:56;4.70;;;4.50;;
21589;SDS011;10957;50.968;6.828;2023-05-07T05:50:58;4.97;;;4.78;;
21589;SDS011;10957;50.968;6.828;2023-05-07T05:55:59;5.25;;;4.95;;
21589;SDS011;10957;50.968;6.828;2023-05-07T06:01:01;4.70;;;4.50;;
21589;SDS011;10957;50.968;6.828;2023-05-07T06:06:04;5.25;;;5.05;;
21589;SDS011;10957;50.968;6.828;2023-05-07T06:11:06;4.78;;;4.57;;
21589;SDS011;10957;50.968;6.828;2023-05-07T06:16:10;5.00;;;4.70;;
21589;SDS011;10957;50.968;6.828;2023-05-07T06:21:13;5.18;;;4.97;;
21589;SDS011;10957;50.968;6.828;2023-05-07T06:26:15;4.70;;;4.50;;
21589;SDS011;10957;50.968;6.828;2023-05-07T06:31:20;5.03;;;4.68;;
21589;SDS011;10957;50.968;6.828;2023-05-07T06:36:28;4.40;;;4.20;;
21589;SDS011;10957;50.968;6.828;2023-05-07T06:41:32;4.60;;;4.40;;
21589;SDS011;10957;50.968;6.828;2023-05-07T06:46:41;4.70;;;4.50;;
21589;SDS011;10957;50.968;6.828;2023-05-07T06:51:43;4.20;;;4.00;;
21589;SDS011;10957;50.968;6.828;2023-05-07T06:56:45;3.70;;;3.60;;
21589;SDS011;10957;50.968;6.828;2023-05-07T07:01:46;4.13;;;3.92;;
21589;SDS011;10957;50.968;6.828;2023-05-07T07:06:48;3.90;;;3.80;;
21589;SDS011;10957;50.968;6.828;2023-05-07T07:11:49;3.90;;;3.60;;
21589;SDS011;10957;50.968;6.828;2023-05-07T07:16:51;3.50;;;3.40;;
21589;SDS011;10957;50.968;6.828;2023-05-07T07:21:54;3.70;;;3.50;;
21589;SDS011;10957;50.968;6.828;2023-05-07T07:26:56;3.80;;;3.70;;
21589;SDS011;10957;50.968;6.828;2023-05-07T07:31:58;3.63;;;3.47;;
21589;SDS011;10957;50.968;6.828;2023-05-07T07:37:00;3.55;;;3.45;;
21589;SDS011;10957;50.968;6.828;2023-05-07T07:42:07;4.05;;;3.85;;
21589;SDS011;10957;50.968;6.828;2023-05-07T07:47:09;3.60;;;3.50;;
21589;SDS011;10957;50.968;6.828;2023-05-07T07:52:10;4.25;;;4.05;;
21589;SDS011;10957;50.968;6.828;2023-05-07T07:57:13;3.45;;;3.35;;
21589;SDS011;10957;50.968;6.828;2023-05-07T08:02:14;3.90;;;3.70;;
21589;SDS011;10957;50.968;6.828;2023-05-07T08:07:16;3.80;;;3.65;;
21589;SDS011;10957;50.968;6.828;2023-05-07T08:12:20;6.65;;;4.10;;
21589;SDS011;10957;50.968;6.828;2023-05-07T08:17:22;3.38;;;3.28;;
21589;SDS011;10957;50.968;6.828;2023-05-07T08:22:24;3.90;;;3.70;;
21589;SDS011;10957;50.968;6.828;2023-05-07T08:27:26;3.50;;;3.40;;
21589;SDS011;10957;50.968;6.828;2023-05-07T08:32:28;3.83;;;3.65;;
21589;SDS011;10957;50.968;6.828;2023-05-07T08:37:29;3.30;;;3.20;;
21589;SDS011;10957;50.968;6.828;2023-05-07T08:42:31;3.25;;;3.15;;
21589;SDS011;10957;50.968;6.828;2023-05-07T08:47:43;3.30;;;3.20;;
21589;SDS011;10957;50.968;6.828;2023-05-07T08:52:47;3.17;;;3.08;;
21589;SDS011;10957;50.968;6.828;2023-05-07T08:57:49;2.95;;;2.85;;
21589;SDS011;10957;50.968;6.828;2023-05-07T09:02:53;3.50;;;3.40;;
21589;SDS011;10957;50.968;6.828;2023-05-07T09:07:55;3.10;;;3.00;;
21589;SDS011;10957;50.968;6.828;2023-05-07T09:13:00;3.30;;;3.20;;
21589;SDS011;10957;50.968;6.828;2023-05-07T09:18:03;3.63;;;3.42;;
21589;SDS011;10957;50.968;6.828;2023-05-07T09:23:07;3.50;;;3.30;;
21589;SDS011;10957;50.968;6.828;2023-05-07T09:28:09;3.17;;;2.97;;
21589;SDS011;10957;50.968;6.828;2023-05-07T09:33:11;3.33;;;3.22;;
21589;SDS011;10957;50.968;6.828;2023-05-07T09:38:16;3.30;;;3.20;;
21589;SDS011;10957;50.968;6.828;2023-05-07T09:43:22;3.25;;;3.15;;
21589;SDS011;10957;50.968;6.828;2023-05-07T09:48:29;3.83;;;3.63;;
21589;SDS011;10957;50.968;6.828;2023-05-07T09:53:31;2.80;;;2.70;;
21589;SDS011;10957;50.968;6.828;2023-05-07T09:58:37;3.45;;;3.25;;
21589;SDS011;10957;50.968;6.828;2023-05-07T10:03:42;3.60;;;3.50;;
21589;SDS011;10957;50.968;6.828;2023-05-07T10:08:45;3.20;;;3.10;;
21589;SDS011;10957;50.968;6.828;2023-05-07T10:13:48;3.30;;;3.20;;
21589;SDS011;10957;50.968;6.828;2023-05-07T10:18:50;3.85;;;3.65;;
21589;SDS011;10957;50.968;6.828;2023-05-07T10:23:59;4.40;;;4.13;;
21589;SDS011;10957;50.968;6.828;2023-05-07T10:29:24;3.50;;;3.30;;
21589;SDS011;10957;50.968;6.828;2023-05-07T10:34:43;2.88;;;2.78;;
21589;SDS011;10957;50.968;6.828;2023-05-07T10:39:48;3.78;;;3.58;;
21589;SDS011;10957;50.968;6.828;2023-05-07T10:44:49;3.33;;;3.13;;
21589;SDS011;10957;50.968;6.828;2023-05-07T11:05:28;3.08;;;2.97;;
21589;SDS011;10957;50.968;6.828;2023-05-07T11:10:53;3.60;;;3.40;;
21589;SDS011;10957;50.968;6.828;2023-05-07T11:16:20;3.00;;;2.90;;
21589;SDS011;10957;50.968;6.828;2023-05-07T11:21:40;2.90;;;2.80;;
21589;SDS011;10957;50.968;6.828;2023-05-07T11:27:00;3.25;;;3.08;;
21589;SDS011;10957;50.968;6.828;2023-05-07T11:32:04;3.00;;;2.90;;
21589;SDS011;10957;50.968;6.828;2023-05-07T11:37:12;2.92;;;2.83;;
21589;SDS011;10957;50.968;6.828;2023-05-07T11:42:25;3.00;;;2.90;;
21589;SDS011;10957;50.968;6.828;2023-05-07T11:47:30;3.20;;;3.10;;
21589;SDS011;10957;50.968;6.828;2023-05-07T11:52:32;3.08;;;2.95;;
21589;SDS011;10957;50.968;6.828;2023-05-07T11:57:33;3.20;;;3.10;;
21589;SDS011;10957;50.968;6.828;2023-05-07T12:02:35;3.00;;;2.90;;
21589;SDS011;10957;50.968;6.828;2023-05-07T12:07:36;2.83;;;2.72;;
21589;SDS011;10957;50.968;6.828;2023-05-07T12:12:38;3.00;;;2.90;;
21589;SDS011;10957;50.968;6.828;2023-05-07T12:17:40;6.20;;;3.40;;
21589;SDS011;10957;50.968;6.828;2023-05-07T12:22:42;2.75;;;2.65;;
21589;SDS011;10957;50.968;6.828;2023-05-07T12:27:43;2.72;;;2.63;;
21589;SDS011;10957;50.968;6.828;2023-05-07T12:32:45;2.75;;;2.65;;
21589;SDS011;10957;50.968;6.828;2023-05-07T12:37:54;3.45;;;3.25;;
21589;SDS011;10957;50.968;6.828;2023-05-07T12:42:56;3.20;;;3.10;;
21589;SDS011;10957;50.968;6.828;2023-05-07T12:48:01;3.30;;;3.15;;
21589;SDS011;10957;50.968;6.828;2023-05-07T12:53:04;3.15;;;2.95;;
21589;SDS011;10957;50.968;6.828;2023-05-07T12:58:08;3.20;;;3.10;;
21589;SDS011;10957;50.968;6.828;2023-05-07T13:03:26;2.85;;;2.75;;
21589;SDS011;10957;50.968;6.828;2023-05-07T13:08:35;3.00;;;2.90;;
21589;SDS011;10957;50.968;6.828;2023-05-07T13:13:38;3.08;;;2.97;;
21589;SDS011;10957;50.968;6.828;2023-05-07T13:18:41;3.00;;;2.90;;
21589;SDS011;10957;50.968;6.828;2023-05-07T13:23:44;4.72;;;3.95;;
21589;SDS011;10957;50.968;6.828;2023-05-07T13:28:45;2.70;;;2.60;;
21589;SDS011;10957;50.968;6.828;2023-05-07T13:33:47;3.28;;;3.17;;
21589;SDS011;10957;50.968;6.828;2023-05-07T13:38:48;3.15;;;2.95;;
21589;SDS011;10957;50.968;6.828;2023-05-07T13:43:50;3.00;;;2.90;;
21589;SDS011;10957;50.968;6.828;2023-05-07T13:48:52;3.25;;;3.10;;
21589;SDS011;10957;50.968;6.828;2023-05-07T13:53:53;3.00;;;2.90;;
21589;SDS011;10957;50.968;6.828;2023-05-07T13:58:54;2.70;;;2.60;;
21589;SDS011;10957;50.968;6.828;2023-05-07T14:03:56;3.30;;;3.20;;
21589;SDS011;10957;50.968;6.828;2023-05-07T14:09:00;3.58;;;3.38;;
21589;SDS011;10957;50.968;6.828;2023-05-07T14:14:02;3.35;;;3.22;;
21589;SDS011;10957;50.968;6.828;2023-05-07T14:19:03;3.20;;;3.10;;
21589;SDS011;10957;50.968;6.828;2023-05-07T14:24:06;3.10;;;3.00;;
21589;SDS011;10957;50.968;6.828;2023-05-07T14:29:08;3.30;;;3.20;;
21589;SDS011;10957;50.968;6.828;2023-05-07T14:34:10;3.75;;;3.55;;
21589;SDS011;10957;50.968;6.828;2023-05-07T14:39:11;3.78;;;3.58;;
21589;SDS011;10957;50.968;6.828;2023-05-07T14:44:12;3.65;;;3.45;;
21589;SDS011;10957;50.968;6.828;2023-05-07T14:49:14;3.28;;;3.17;;
21589;SDS011;10957;50.968;6.828;2023-05-07T14:54:17;2.97;;;2.88;;
21589;SDS011;10957;50.968;6.828;2023-05-07T14:59:19;3.42;;;3.30;;
21589;SDS011;10957;50.968;6.828;2023-05-07T15:04:21;3.30;;;3.20;;
21589;SDS011;10957;50.968;6.828;2023-05-07T15:09:24;4.63;;;3.10;;
21589;SDS011;10957;50.968;6.828;2023-05-07T15:14:25;3.17;;;3.08;;
21589;SDS011;10957;50.968;6.828;2023-05-07T15:19:26;3.03;;;2.92;;
21589;SDS011;10957;50.968;6.828;2023-05-07T15:24:30;3.40;;;3.30;;
21589;SDS011;10957;50.968;6.828;2023-05-07T15:29:31;2.80;;;2.70;;
21589;SDS011;10957;50.968;6.828;2023-05-07T15:34:34;3.40;;;3.20;;
21589;SDS011;10957;50.968;6.828;2023-05-07T15:39:36;2.75;;;2.65;;
21589;SDS011;10957;50.968;6.828;2023-05-07T15:44:37;2.60;;;2.50;;
21589;SDS011;10957;50.968;6.828;2023-05-07T15:49:38;3.03;;;2.92;;
21589;SDS011;10957;50.968;6.828;2023-05-07T15:54:40;3.40;;;3.20;;
21589;SDS011;10957;50.968;6.828;2023-05-07T15:59:42;2.97;;;2.83;;
21589;SDS011;10957;50.968;6.828;2023-05-07T16:04:44;3.20;;;2.88;;
21589;SDS011;10957;50.968;6.828;2023-05-07T16:09:46;2.72;;;2.63;;
21589;SDS011;10957;50.968;6.828;2023-05-07T16:14:47;3.50;;;3.33;;
21589;SDS011;10957;50.968;6.828;2023-05-07T16:19:49;3.47;;;3.28;;
21589;SDS011;10957;50.968;6.828;2023-05-07T16:24:51;3.20;;;3.10;;
21589;SDS011;10957;50.968;6.828;2023-05-07T16:29:52;3.53;;;3.33;;
21589;SDS011;10957;50.968;6.828;2023-05-07T16:34:53;3.47;;;3.28;;
21589;SDS011;10957;50.968;6.828;2023-05-07T16:39:55;2.88;;;2.78;;
21589;SDS011;10957;50.968;6.828;2023-05-07T16:44:56;3.22;;;3.13;;
21589;SDS011;10957;50.968;6.828;2023-05-07T16:49:57;3.30;;;3.10;;
21589;SDS011;10957;50.968;6.828;2023-05-07T16:55:00;2.95;;;2.85;;
21589;SDS011;10957;50.968;6.828;2023-05-07T17:00:01;3.20;;;3.00;;
21589;SDS011;10957;50.968;6.828;2023-05-07T17:05:07;3.30;;;3.20;;
21589;SDS011;10957;50.968;6.828;2023-05-07T17:10:08;3.20;;;3.10;;
21589;SDS011;10957;50.968;6.828;2023-05-07T17:15:10;3.33;;;3.22;;
21589;SDS011;10957;50.968;6.828;2023-05-07T17:20:11;3.00;;;2.90;;
21589;SDS011;10957;50.968;6.828;2023-05-07T17:25:13;3.20;;;2.97;;
21589;SDS011;10957;50.968;6.828;2023-05-07T17:30:14;3.60;;;3.47;;
21589;SDS011;10957;50.968;6.828;2023-05-07T17:35:16;2.92;;;2.83;;
21589;SDS011;10957;50.968;6.828;2023-05-07T17:40:20;3.35;;;3.25;;
21589;SDS011;10957;50.968;6.828;2023-05-07T17:45:22;3.05;;;2.95;;
21589;SDS011;10957;50.968;6.828;2023-05-07T17:50:23;3.13;;;3.03;;
21589;SDS011;10957;50.968;6.828;2023-05-07T17:55:24;3.20;;;3.10;;
21589;SDS011;10957;50.968;6.828;2023-05-07T18:00:26;3.10;;;3.00;;
21589;SDS011;10957;50.968;6.828;2023-05-07T18:05:27;3.10;;;3.00;;
21589;SDS011;10957;50.968;6.828;2023-05-07T18:10:29;3.75;;;3.50;;
21589;SDS011;10957;50.968;6.828;2023-05-07T18:15:30;3.45;;;3.35;;
21589;SDS011;10957;50.968;6.828;2023-05-07T18:20:32;3.10;;;3.00;;
21589;SDS011;10957;50.968;6.828;2023-05-07T18:25:33;3.40;;;3.30;;
21589;SDS011;10957;50.968;6.828;2023-05-07T18:30:34;3.40;;;3.30;;
21589;SDS011;10957;50.968;6.828;2023-05-07T18:35:36;3.10;;;3.00;;
21589;SDS011;10957;50.968;6.828;2023-05-07T18:40:37;3.50;;;3.33;;
21589;SDS011;10957;50.968;6.828;2023-05-07T18:45:45;3.33;;;3.22;;
21589;SDS011;10957;50.968;6.828;2023-05-07T18:50:47;4.15;;;3.85;;
21589;SDS011;10957;50.968;6.828;2023-05-07T18:55:49;3.38;;;3.28;;
21589;SDS011;10957;50.968;6.828;2023-05-07T19:00:51;3.55;;;3.45;;
21589;SDS011;10957;50.968;6.828;2023-05-07T19:05:52;3.53;;;3.42;;
21589;SDS011;10957;50.968;6.828;2023-05-07T19:10:55;4.00;;;3.80;;
21589;SDS011;10957;50.968;6.828;2023-05-07T19:15:57;4.57;;;4.28;;
21589;SDS011;10957;50.968;6.828;2023-05-07T19:20:58;3.55;;;3.45;;
21589;SDS011;10957;50.968;6.828;2023-05-07T19:25:59;3.45;;;3.30;;
21589;SDS011;10957;50.968;6.828;2023-05-07T19:31:01;3.60;;;3.50;;
21589;SDS011;10957;50.968;6.828;2023-05-07T19:36:03;3.50;;;3.40;;
21589;SDS011;10957;50.968;6.828;2023-05-07T19:41:04;5.15;;;4.55;;
21589;SDS011;10957;50.968;6.828;2023-05-07T19:46:06;3.60;;;3.40;;
21589;SDS011;10957;50.968;6.828;2023-05-07T19:51:07;3.45;;;3.35;;
21589;SDS011;10957;50.968;6.828;2023-05-07T19:56:09;13.07;;;4.18;;
21589;SDS011;10957;50.968;6.828;2023-05-07T20:01:11;4.75;;;4.55;;
21589;SDS011;10957;50.968;6.828;2023-05-07T20:06:12;4.63;;;4.32;;
21589;SDS011;10957;50.968;6.828;2023-05-07T20:11:13;5.50;;;5.10;;
21589;SDS011;10957;50.968;6.828;2023-05-07T20:16:15;4.20;;;4.00;;
21589;SDS011;10957;50.968;6.828;2023-05-07T20:21:16;4.60;;;4.40;;
21589;SDS011;10957;50.968;6.828;2023-05-07T20:26:17;4.85;;;4.65;;
21589;SDS011;10957;50.968;6.828;2023-05-07T20:31:19;4.60;;;4.38;;
21589;SDS011;10957;50.968;6.828;2023-05-07T20:36:20;4.75;;;4.55;;
21589;SDS011;10957;50.968;6.828;2023-05-07T20:41:24;4.47;;;4.28;;
21589;SDS011;10957;50.968;6.828;2023-05-07T20:46:25;4.90;;;4.70;;
21589;SDS011;10957;50.968;6.828;2023-05-07T20:51:27;4.88;;;4.68;;
21589;SDS011;10957;50.968;6.828;2023-05-07T20:56:31;4.78;;;4.57;;
21589;SDS011;10957;50.968;6.828;2023-05-07T21:01:33;5.80;;;5.53;;
21589;SDS011;10957;50.968;6.828;2023-05-07T21:06:37;5.50;;;5.20;;
21589;SDS011;10957;50.968;6.828;2023-05-07T21:11:39;5.70;;;5.40;;
21589;SDS011;10957;50.968;6.828;2023-05-07T21:16:40;5.40;;;5.10;;
21589;SDS011;10957;50.968;6.828;2023-05-07T21:21:42;4.80;;;4.60;;
21589;SDS011;10957;50.968;6.828;2023-05-07T21:26:43;4.80;;;4.60;;
21589;SDS011;10957;50.968;6.828;2023-05-07T21:31:45;4.90;;;4.70;;
21589;SDS011;10957;50.968;6.828;2023-05-07T21:36:46;4.82;;;4.63;;
21589;SDS011;10957;50.968;6.828;2023-05-07T21:41:47;4.85;;;4.65;;
21589;SDS011;10957;50.968;6.828;2023-05-07T21:46:49;6.85;;;6.07;;
21589;SDS011;10957;50.968;6.828;2023-05-07T21:51:50;5.28;;;4.97;;
21589;SDS011;10957;50.968;6.828;2023-05-07T21:56:52;4.82;;;4.63;;
21589;SDS011;10957;50.968;6.828;2023-05-07T22:01:53;5.47;;;5.18;;
21589;SDS011;10957;50.968;6.828;2023-05-07T22:12:21;5.00;;;4.80;;
21589;SDS011;10957;50.968;6.828;2023-05-07T22:17:23;5.20;;;4.93;;
21589;SDS011;10957;50.968;6.828;2023-05-07T22:22:24;5.10;;;4.90;;
21589;SDS011;10957;50.968;6.828;2023-05-07T22:27:25;4.57;;;4.38;;
21589;SDS011;10957;50.968;6.828;2023-05-07T22:32:27;4.90;;;4.70;;
21589;SDS011;10957;50.968;6.828;2023-05-07T22:37:28;4.82;;;4.63;;
21589;SDS011;10957;50.968;6.828;2023-05-07T22:42:30;5.13;;;4.93;;
21589;SDS011;10957;50.968;6.828;2023-05-07T22:47:31;5.78;;;5.47;;
21589;SDS011;10957;50.968;6.828;2023-05-07T22:52:33;5.40;;;5.10;;
21589;SDS011;10957;50.968;6.828;2023-05-07T22:57:34;4.45;;;4.25;;
21589;SDS011;10957;50.968;6.828;2023-05-07T23:02:36;5.10;;;4.90;;
21589;SDS011;10957;50.968;6.828;2023-05-07T23:07:37;5.13;;;4.93;;
21589;SDS011;10957;50.968;6.828;2023-05-07T23:12:38;5.10;;;4.82;;
21589;SDS011;10957;50.968;6.828;2023-05-07T23:17:39;4.65;;;4.45;;
21589;SDS011;10957;50.968;6.828;2023-05-07T23:22:41;4.90;;;4.70;;
21589;SDS011;10957;50.968;6.828;2023-05-07T23:27:42;4.72;;;4.53;;
21589;SDS011;10957;50.968;6.828;2023-05-07T23:32:44;5.28;;;5.07;;
21589;SDS011;10957;50.968;6.828;2023-05-07T23:37:45;5.60;;;5.30;;
21589;SDS011;10957;50.968;6.828;2023-05-07T23:42:47;5.55;;;5.18;;
21589;SDS011;10957;50.968;6.828;2023-05-07T23:47:48;5.18;;;4.97;;
21589;SDS011;10957;50.968;6.828;2023-05-07T23:52:49;5.50;;;5.20;;
21589;SDS011;10957;50.968;6.828;2023-05-07T23:57:50;5.65;;;5.28;;
